createdAt,value
2019-03-11T00:00:27.199Z,8.17
2019-03-11T00:02:55.667Z,9.63
2019-03-11T00:05:24.098Z,4.97
2019-03-11T00:07:52.584Z,5.80
2019-03-11T00:10:21.083Z,6.30
2019-03-11T00:12:49.514Z,7.97
2019-03-11T00:15:17.947Z,14.37
2019-03-11T00:17:46.391Z,11.70
2019-03-11T00:20:14.829Z,7.53
2019-03-11T00:22:43.280Z,18.87
2019-03-11T00:25:11.827Z,6.73
2019-03-11T00:27:40.281Z,3.70
2019-03-11T00:30:11.348Z,5.23
2019-03-11T00:32:39.779Z,8.60
2019-03-11T00:35:08.377Z,9.63
2019-03-11T00:37:36.848Z,15.03
2019-03-11T00:40:11.067Z,5.87
2019-03-11T00:42:39.526Z,5.37
2019-03-11T00:45:10.742Z,8.53
2019-03-11T00:47:39.202Z,17.07
2019-03-11T00:50:10.068Z,11.07
2019-03-11T00:52:38.761Z,10.20
2019-03-11T00:55:09.358Z,10.00
2019-03-11T00:57:37.810Z,8.90
2019-03-11T01:00:09.400Z,7.30
2019-03-11T01:02:37.840Z,10.63
2019-03-11T01:05:06.309Z,14.70
2019-03-11T01:07:34.778Z,10.90
2019-03-11T01:10:03.684Z,8.57
2019-03-11T01:12:32.227Z,7.23
2019-03-11T01:15:00.691Z,6.40
2019-03-11T01:17:29.154Z,16.40
2019-03-11T01:19:57.634Z,11.00
2019-03-11T01:22:26.169Z,10.03
2019-03-11T01:24:54.631Z,12.90
2019-03-11T01:27:23.087Z,8.63
2019-03-11T01:29:51.535Z,17.47
2019-03-11T01:32:20.021Z,12.23
2019-03-11T01:34:48.611Z,14.57
2019-03-11T01:37:17.152Z,9.33
2019-03-11T01:39:45.618Z,18.77
2019-03-11T01:42:14.086Z,10.83
2019-03-11T01:44:42.608Z,4.80
2019-03-11T01:47:11.127Z,21.13
2019-03-11T01:49:39.586Z,10.83
2019-03-11T01:52:08.060Z,7.27
2019-03-11T01:54:36.522Z,16.13
2019-03-11T01:57:04.988Z,12.90
2019-03-11T01:59:33.438Z,15.83
2019-03-11T02:02:01.906Z,20.93
2019-03-11T02:04:30.457Z,7.90
2019-03-11T02:06:58.916Z,26.90
2019-03-11T02:09:27.401Z,11.80
2019-03-11T02:11:55.857Z,13.60
2019-03-11T02:14:24.338Z,17.43
2019-03-11T02:16:52.854Z,11.70
2019-03-11T02:19:21.395Z,9.57
2019-03-11T02:21:49.841Z,15.30
2019-03-11T02:24:18.310Z,11.30
2019-03-11T02:26:46.770Z,10.93
2019-03-11T02:29:15.227Z,15.40
2019-03-11T02:31:43.673Z,18.57
2019-03-11T02:34:12.283Z,19.60
2019-03-11T02:36:40.740Z,14.23
2019-03-11T02:39:09.617Z,7.47
2019-03-11T02:41:38.138Z,8.90
2019-03-11T02:44:06.611Z,26.73
2019-03-11T02:46:35.101Z,13.50
2019-03-11T02:49:03.650Z,16.40
2019-03-11T02:51:32.156Z,28.73
2019-03-11T02:54:00.691Z,19.57
2019-03-11T02:56:29.420Z,19.70
2019-03-11T02:58:57.886Z,10.20
2019-03-11T03:01:34.911Z,10.23
2019-03-11T03:04:07.556Z,11.47
2019-03-11T03:06:36.008Z,16.73
2019-03-11T03:09:07.645Z,20.33
2019-03-11T03:11:36.134Z,19.63
2019-03-11T03:14:04.647Z,15.03
2019-03-11T03:16:33.163Z,10.40
2019-03-11T03:19:01.721Z,14.63
2019-03-11T03:21:30.172Z,10.97
2019-03-11T03:23:58.624Z,16.73
2019-03-11T03:26:27.354Z,11.00
2019-03-11T03:28:55.795Z,11.03
2019-03-11T03:31:24.271Z,17.70
2019-03-11T03:33:52.751Z,15.77
2019-03-11T03:36:21.293Z,24.83
2019-03-11T03:38:49.821Z,19.10
2019-03-11T03:41:18.399Z,14.17
2019-03-11T03:43:46.920Z,13.47
2019-03-11T03:46:19.150Z,17.57
2019-03-11T03:48:45.639Z,15.60
2019-03-11T03:51:14.237Z,15.17
2019-03-11T03:53:42.763Z,14.43
2019-03-11T03:56:11.203Z,15.10
2019-03-11T03:58:39.648Z,18.03
2019-03-11T04:01:08.122Z,15.50
2019-03-11T04:03:36.696Z,29.73
2019-03-11T04:06:05.244Z,16.10
2019-03-11T04:08:33.715Z,12.60
2019-03-11T04:11:02.311Z,12.33
2019-03-11T04:13:30.776Z,14.00
2019-03-11T04:15:59.290Z,13.10
2019-03-11T04:18:45.779Z,22.10
2019-03-11T04:21:14.328Z,16.50
2019-03-11T04:23:42.841Z,22.13
2019-03-11T04:26:11.304Z,15.07
2019-03-11T04:28:39.779Z,15.97
2019-03-11T04:31:08.400Z,13.63
2019-03-11T04:33:36.951Z,15.87
2019-03-11T04:36:05.393Z,11.47
2019-03-11T04:38:33.897Z,17.30
2019-03-11T04:41:02.367Z,11.07
2019-03-11T04:43:30.954Z,15.33
2019-03-11T04:45:59.412Z,16.23
2019-03-11T04:48:27.977Z,20.00
2019-03-11T04:50:56.436Z,9.97
2019-03-11T04:53:24.900Z,14.40
2019-03-11T04:55:53.415Z,22.57
2019-03-11T04:58:21.865Z,17.80
2019-03-11T05:00:50.391Z,8.60
2019-03-11T05:03:18.847Z,6.77
2019-03-11T05:05:47.337Z,12.20
2019-03-11T05:08:15.857Z,15.80
2019-03-11T05:10:44.314Z,7.10
2019-03-11T05:13:12.805Z,14.17
2019-03-11T05:15:41.267Z,9.73
2019-03-11T05:18:10.025Z,12.20
2019-03-11T05:20:38.522Z,13.40
2019-03-11T05:23:07.086Z,7.03
2019-03-11T05:25:35.625Z,9.13
2019-03-11T05:28:04.194Z,14.03
2019-03-11T05:30:32.684Z,9.63
2019-03-11T05:33:01.136Z,9.17
2019-03-11T05:35:29.668Z,15.47
2019-03-11T05:37:58.122Z,9.73
2019-03-11T05:40:26.672Z,10.13
2019-03-11T05:42:55.198Z,4.20
2019-03-11T05:45:23.772Z,4.63
2019-03-11T05:47:52.187Z,1.30
2019-03-11T05:50:20.631Z,4.23
2019-03-11T05:52:49.064Z,1.60
2019-03-11T05:55:17.507Z,5.53
2019-03-11T05:57:45.989Z,4.53
2019-03-11T06:00:20.728Z,4.47
2019-03-11T06:02:49.196Z,2.70
2019-03-11T06:05:17.746Z,1.53
2019-03-11T06:07:46.290Z,1.60
2019-03-11T06:10:15.379Z,4.10
2019-03-11T06:12:44.242Z,4.30
2019-03-11T06:15:14.136Z,11.77
2019-03-11T06:17:43.027Z,5.90
2019-03-11T06:20:20.208Z,3.43
2019-03-11T06:22:48.716Z,3.27
2019-03-11T06:25:17.195Z,3.90
2019-03-11T06:27:45.619Z,5.17
2019-03-11T06:30:14.250Z,2.73
2019-03-11T06:32:45.613Z,0.80
2019-03-11T06:35:14.203Z,1.73
2019-03-11T06:37:42.644Z,4.20
2019-03-11T06:40:12.534Z,4.70
2019-03-11T06:42:40.971Z,0.90
2019-03-11T06:45:12.036Z,1.77
2019-03-11T06:47:40.576Z,2.20
2019-03-11T06:50:11.672Z,0.70
2019-03-11T06:52:40.142Z,0.80
2019-03-11T06:55:09.810Z,0.73
2019-03-11T06:57:38.261Z,1.17
2019-03-11T07:00:20.856Z,1.43
2019-03-11T07:02:49.284Z,0.73
2019-03-11T07:05:20.651Z,1.00
2019-03-11T07:07:48.005Z,2.37
2019-03-11T07:10:17.099Z,2.50
2019-03-11T07:12:45.555Z,18.47
2019-03-11T07:15:15.192Z,1.80
2019-03-11T07:17:43.808Z,2.30
2019-03-11T07:20:14.376Z,1.03
2019-03-11T07:22:42.813Z,4.10
2019-03-11T07:25:11.311Z,0.80
2019-03-11T07:27:39.774Z,6.30
2019-03-11T07:30:14.147Z,4.70
2019-03-11T07:32:42.591Z,5.70
2019-03-11T07:35:11.104Z,4.37
2019-03-11T07:37:39.608Z,1.43
2019-03-11T07:40:28.569Z,1.30
2019-03-11T07:42:46.842Z,2.80
2019-03-11T07:45:16.138Z,3.17
2019-03-11T07:47:44.569Z,2.03
2019-03-11T07:50:16.867Z,4.43
2019-03-11T07:52:45.428Z,1.17
2019-03-11T07:55:14.516Z,1.27
2019-03-11T07:57:43.021Z,2.23
2019-03-11T08:00:19.464Z,1.07
2019-03-11T08:02:47.972Z,1.20
2019-03-11T08:05:16.566Z,6.60
2019-03-11T08:07:45.015Z,13.63
2019-03-11T08:10:24.022Z,18.47
2019-03-11T08:12:52.529Z,18.10
2019-03-11T08:15:20.951Z,6.20
2019-03-11T08:17:49.380Z,4.07
2019-03-11T08:20:17.912Z,3.23
2019-03-11T08:22:46.357Z,4.70
2019-03-11T08:25:15.718Z,0.90
2019-03-11T08:27:44.228Z,2.60
2019-03-11T08:30:15.480Z,1.53
2019-03-11T08:32:43.941Z,2.73
2019-03-11T08:35:12.523Z,2.60
2019-03-11T08:37:40.962Z,7.20
2019-03-11T08:40:11.952Z,6.93
2019-03-11T08:42:40.457Z,3.73
2019-03-11T08:45:11.715Z,5.83
2019-03-11T08:47:40.170Z,4.23
2019-03-11T08:50:13.569Z,2.00
2019-03-11T08:52:42.000Z,1.20
2019-03-11T08:55:10.604Z,1.20
2019-03-11T08:57:40.212Z,9.30
2019-03-11T09:00:36.060Z,4.27
2019-03-11T09:03:23.953Z,3.17
2019-03-11T09:06:11.731Z,4.97
2019-03-11T09:08:59.515Z,6.27
2019-03-11T09:11:47.279Z,6.97
2019-03-11T09:14:35.063Z,5.50
2019-03-11T09:17:22.836Z,10.20
2019-03-11T09:20:29.923Z,6.67
2019-03-11T09:23:17.700Z,10.83
2019-03-11T09:26:05.474Z,4.03
2019-03-11T09:28:53.267Z,4.70
2019-03-11T09:31:41.037Z,3.20
2019-03-11T09:34:28.810Z,3.93
2019-03-11T09:37:16.581Z,3.43
2019-03-11T09:40:05.897Z,2.77
2019-03-11T09:42:34.338Z,7.70
2019-03-11T09:45:03.045Z,2.97
2019-03-11T09:47:31.455Z,4.53
2019-03-11T09:49:59.895Z,2.03
2019-03-11T09:52:28.323Z,6.07
2019-03-11T09:54:56.772Z,3.33
2019-03-11T09:57:25.194Z,3.93
2019-03-11T09:59:53.632Z,4.67
2019-03-11T10:02:22.056Z,4.07
2019-03-11T10:04:50.563Z,6.60
2019-03-11T10:07:19.054Z,4.10
2019-03-11T10:09:47.492Z,5.67
2019-03-11T10:12:15.951Z,5.53
2019-03-11T10:14:44.422Z,4.40
2019-03-11T10:17:12.860Z,4.53
2019-03-11T10:19:41.277Z,6.47
2019-03-11T10:22:09.710Z,9.93
2019-03-11T10:24:38.139Z,4.63
2019-03-11T10:27:06.578Z,5.60
2019-03-11T10:29:35.016Z,2.63
2019-03-11T10:32:03.457Z,1.67
2019-03-11T10:34:31.883Z,4.20
2019-03-11T10:37:00.319Z,9.50
2019-03-11T10:39:28.762Z,8.53
2019-03-11T10:41:57.195Z,8.30
2019-03-11T10:44:25.615Z,11.23
2019-03-11T10:46:54.118Z,4.30
2019-03-11T10:49:22.542Z,5.93
2019-03-11T10:51:51.098Z,3.40
2019-03-11T10:54:19.567Z,2.47
2019-03-11T10:56:48.004Z,3.10
2019-03-11T10:59:16.430Z,7.77
2019-03-11T11:01:44.864Z,4.80
2019-03-11T11:04:13.313Z,2.70
2019-03-11T11:06:41.744Z,2.60
2019-03-11T11:09:10.452Z,4.03
2019-03-11T11:11:39.131Z,2.10
2019-03-11T11:14:07.578Z,4.67
2019-03-11T11:16:35.999Z,6.33
2019-03-11T11:19:04.426Z,3.07
2019-03-11T11:21:32.848Z,3.67
2019-03-11T11:24:01.276Z,4.30
2019-03-11T11:26:29.706Z,1.67
2019-03-11T11:28:58.180Z,4.20
2019-03-11T11:31:26.674Z,1.60
2019-03-11T11:33:56.914Z,4.77
2019-03-11T11:36:25.261Z,2.63
2019-03-11T11:38:53.694Z,7.43
2019-03-11T11:41:22.116Z,3.17
2019-03-11T11:43:50.547Z,3.30
2019-03-11T11:46:18.964Z,2.60
2019-03-11T11:48:47.403Z,3.43
2019-03-11T11:51:16.054Z,5.50
2019-03-11T11:53:44.536Z,2.03
2019-03-11T11:56:12.956Z,2.63
2019-03-11T11:58:41.445Z,2.83
2019-03-11T12:01:09.971Z,3.57
2019-03-11T12:03:38.425Z,6.93
2019-03-11T12:06:06.850Z,2.50
2019-03-11T12:08:35.284Z,1.93
2019-03-11T12:11:03.705Z,3.73
2019-03-11T12:13:32.145Z,3.87
2019-03-11T12:16:00.589Z,2.87
2019-03-11T12:18:29.077Z,5.43
2019-03-11T12:20:57.571Z,4.03
2019-03-11T12:23:26.015Z,2.80
2019-03-11T12:29:20.646Z,2.43
2019-03-11T12:32:08.634Z,2.43
2019-03-11T12:34:56.423Z,1.90
2019-03-11T12:37:44.223Z,5.97
2019-03-11T12:40:17.310Z,2.07
2019-03-11T12:42:45.896Z,3.23
2019-03-11T12:45:18.904Z,4.13
2019-03-11T12:47:47.561Z,3.43
2019-03-11T12:50:23.343Z,6.53
2019-03-11T12:52:51.768Z,2.40
2019-03-11T12:55:21.644Z,4.00
2019-03-11T12:57:50.376Z,3.67
2019-03-11T13:00:20.054Z,6.83
2019-03-11T13:02:48.539Z,5.37
2019-03-11T13:05:17.312Z,1.80
2019-03-11T13:07:45.894Z,4.90
2019-03-11T13:10:16.551Z,6.37
2019-03-11T13:12:45.049Z,2.83
2019-03-11T13:15:14.744Z,3.33
2019-03-11T13:17:43.161Z,5.47
2019-03-11T13:20:17.637Z,2.67
2019-03-11T13:22:48.214Z,3.23
2019-03-11T13:25:16.630Z,3.57
2019-03-11T13:27:45.062Z,1.97
2019-03-11T13:30:15.026Z,4.50
2019-03-11T13:32:43.454Z,5.93
2019-03-11T13:35:13.012Z,2.10
2019-03-11T13:37:41.463Z,2.50
2019-03-11T13:40:11.192Z,5.07
2019-03-11T13:42:39.672Z,10.20
2019-03-11T13:45:13.817Z,10.10
2019-03-11T13:47:42.257Z,9.77
2019-03-11T13:50:12.706Z,5.17
2019-03-11T13:52:41.147Z,6.70
2019-03-11T13:55:11.416Z,2.97
2019-03-11T13:57:39.918Z,3.70
2019-03-11T14:00:19.218Z,1.80
2019-03-11T14:02:47.800Z,3.27
2019-03-11T14:05:16.291Z,5.70
2019-03-11T14:07:44.799Z,3.67
2019-03-11T14:10:14.361Z,2.87
2019-03-11T14:12:42.866Z,2.60
2019-03-11T14:15:18.592Z,7.57
2019-03-11T14:17:47.116Z,2.03
2019-03-11T14:20:15.919Z,4.83
2019-03-11T14:22:44.409Z,5.13
2019-03-11T14:25:13.762Z,6.13
2019-03-11T14:27:42.259Z,3.77
2019-03-11T14:30:17.534Z,5.10
2019-03-11T14:32:45.969Z,3.30
2019-03-11T14:35:14.528Z,8.60
2019-03-11T14:37:42.972Z,2.50
2019-03-11T14:40:13.762Z,2.67
2019-03-11T14:42:42.188Z,3.67
2019-03-11T14:45:21.652Z,3.53
2019-03-11T14:47:50.232Z,4.53
2019-03-11T14:50:18.840Z,4.77
2019-03-11T14:52:47.346Z,2.60
2019-03-11T14:55:16.417Z,6.17
2019-03-11T14:57:44.921Z,1.63
2019-03-11T15:00:18.821Z,5.00
2019-03-11T15:02:47.603Z,3.10
2019-03-11T15:05:19.510Z,5.40
2019-03-11T15:07:48.076Z,2.60
2019-03-11T15:10:17.815Z,5.10
2019-03-11T15:12:46.317Z,1.73
2019-03-11T15:15:22.749Z,8.30
2019-03-11T15:17:51.178Z,1.90
2019-03-11T15:20:19.683Z,4.33
2019-03-11T15:22:48.239Z,3.40
2019-03-11T15:25:17.637Z,2.30
2019-03-11T15:27:46.339Z,9.63
2019-03-11T15:30:19.416Z,3.43
2019-03-11T15:32:48.002Z,7.77
2019-03-11T15:35:16.527Z,4.60
2019-03-11T15:37:45.029Z,2.80
2019-03-11T15:40:15.492Z,4.20
2019-03-11T15:42:44.300Z,9.10
2019-03-11T15:45:15.017Z,2.40
2019-03-11T15:47:43.460Z,0.77
2019-03-11T15:50:15.082Z,5.03
2019-03-11T15:52:43.675Z,6.67
2019-03-11T15:55:14.567Z,1.20
2019-03-11T15:58:02.331Z,3.83
2019-03-11T16:00:43.464Z,2.60
2019-03-11T16:03:24.427Z,4.73
2019-03-11T16:06:05.563Z,9.03
2019-03-11T16:08:46.676Z,3.67
2019-03-11T16:11:27.580Z,6.40
2019-03-11T16:14:08.522Z,4.60
2019-03-11T16:16:49.326Z,2.00
2019-03-11T16:19:30.155Z,4.80
2019-03-11T16:22:10.975Z,1.47
2019-03-11T16:24:51.571Z,3.33
2019-03-11T16:27:32.303Z,4.50
2019-03-11T16:30:13.099Z,5.60
2019-03-11T16:33:01.365Z,3.90
2019-03-11T16:35:36.499Z,5.93
2019-03-11T16:38:17.356Z,10.47
2019-03-11T16:40:58.438Z,4.13
2019-03-11T16:43:38.922Z,5.73
2019-03-11T16:46:19.927Z,4.57
2019-03-11T16:48:48.360Z,5.40
2019-03-11T16:51:16.790Z,3.57
2019-03-11T16:53:45.223Z,6.87
2019-03-11T16:56:13.653Z,5.30
2019-03-11T16:58:42.079Z,5.00
2019-03-11T17:01:12.154Z,7.73
2019-03-11T17:03:40.585Z,8.70
2019-03-11T17:06:09.020Z,6.13
2019-03-11T17:08:37.452Z,5.33
2019-03-11T17:11:06.076Z,3.87
2019-03-11T17:13:34.599Z,2.70
2019-03-11T17:16:03.024Z,5.83
2019-03-11T17:18:31.450Z,3.73
2019-03-11T17:20:59.895Z,4.30
2019-03-11T17:23:28.334Z,1.30
2019-03-11T17:25:56.755Z,1.87
2019-03-11T17:28:25.187Z,4.47
2019-03-11T17:30:53.614Z,5.03
2019-03-11T17:33:22.211Z,3.43
2019-03-11T17:35:50.636Z,7.90
2019-03-11T17:38:19.103Z,5.73
2019-03-11T17:40:47.652Z,5.53
2019-03-11T17:43:16.073Z,2.30
2019-03-11T17:45:44.663Z,4.70
2019-03-11T17:48:13.542Z,5.07
2019-03-11T17:50:41.969Z,6.03
2019-03-11T17:53:19.634Z,8.67
2019-03-11T17:55:40.714Z,3.23
2019-03-11T17:58:09.461Z,7.10
2019-03-11T18:00:54.518Z,4.10
2019-03-11T18:03:13.031Z,8.67
2019-03-11T18:05:42.208Z,8.67
2019-03-11T18:08:10.976Z,6.50
2019-03-11T18:10:39.804Z,4.00
2019-03-11T18:13:08.305Z,6.50
2019-03-11T18:15:36.808Z,3.23
2019-03-11T18:18:05.313Z,7.00
2019-03-11T18:20:33.728Z,8.60
2019-03-11T18:23:02.245Z,4.50
2019-03-11T18:25:30.830Z,5.63
2019-03-11T18:27:59.361Z,6.07
2019-03-11T18:30:29.524Z,3.63
2019-03-11T18:32:57.966Z,4.63
2019-03-11T18:35:26.477Z,7.67
2019-03-11T18:38:03.608Z,5.23
2019-03-11T18:40:25.547Z,8.10
2019-03-11T18:42:53.962Z,5.40
2019-03-11T18:45:23.187Z,4.80
2019-03-11T18:47:51.707Z,5.53
2019-03-11T18:50:24.389Z,3.77
2019-03-11T18:52:53.032Z,6.93
2019-03-11T18:55:21.529Z,2.50
2019-03-11T18:57:50.115Z,3.00
2019-03-11T19:00:20.028Z,8.10
2019-03-11T19:02:48.544Z,4.67
2019-03-11T19:05:18.381Z,6.40
2019-03-11T19:07:47.137Z,3.03
2019-03-11T19:10:16.467Z,5.33
2019-03-11T19:12:45.686Z,5.77
2019-03-11T19:15:24.697Z,3.00
2019-03-11T19:17:53.308Z,5.80
2019-03-11T19:20:23.019Z,6.50
2019-03-11T19:22:51.588Z,6.97
2019-03-11T19:25:20.275Z,6.10
2019-03-11T19:27:49.001Z,3.03
2019-03-11T19:30:25.134Z,7.80
2019-03-11T19:32:53.604Z,8.17
2019-03-11T19:35:22.222Z,2.90
2019-03-11T19:37:50.853Z,7.60
2019-03-11T19:40:22.452Z,4.77
2019-03-11T19:42:50.969Z,4.60
2019-03-11T19:45:19.606Z,3.23
2019-03-11T19:47:48.141Z,7.23
2019-03-11T19:50:18.042Z,2.83
2019-03-11T19:52:57.868Z,5.23
2019-03-11T19:55:16.998Z,1.90
2019-03-11T19:57:45.626Z,3.17
2019-03-11T20:00:20.257Z,7.50
2019-03-11T20:02:48.776Z,2.60
2019-03-11T20:05:26.511Z,5.30
2019-03-11T20:07:55.067Z,9.40
2019-03-11T20:10:23.807Z,2.07
2019-03-11T20:12:52.312Z,5.03
2019-03-11T20:15:20.775Z,14.70
2019-03-11T20:17:49.361Z,1.80
2019-03-11T20:20:18.695Z,7.33
2019-03-11T20:22:49.696Z,5.33
2019-03-11T20:25:24.040Z,3.03
2019-03-11T20:27:52.959Z,7.07
2019-03-11T20:30:23.519Z,3.73
2019-03-11T20:32:52.619Z,2.70
2019-03-11T20:35:21.240Z,6.90
2019-03-11T20:37:49.984Z,1.90
2019-03-11T20:40:18.452Z,8.90
2019-03-11T20:42:47.054Z,12.10
2019-03-11T20:45:16.910Z,2.80
2019-03-11T20:47:45.495Z,6.30
2019-03-11T20:50:16.270Z,5.20
2019-03-11T20:52:44.878Z,4.03
2019-03-11T20:55:14.832Z,11.37
2019-03-11T20:57:43.377Z,3.77
2019-03-11T21:00:14.975Z,3.83
2019-03-11T21:02:43.523Z,9.73
2019-03-11T21:05:14.518Z,1.57
2019-03-11T21:07:43.120Z,8.70
2019-03-11T21:10:13.998Z,1.83
2019-03-11T21:12:42.531Z,10.33
2019-03-11T21:15:13.676Z,4.47
2019-03-11T21:17:42.476Z,6.20
2019-03-11T21:20:15.688Z,2.07
2019-03-11T21:22:44.400Z,5.43
2019-03-11T21:25:15.052Z,3.93
2019-03-11T21:27:43.579Z,10.93
2019-03-11T21:30:17.332Z,4.13
2019-03-11T21:32:46.261Z,4.90
2019-03-11T21:35:15.148Z,8.63
2019-03-11T21:37:44.396Z,3.87
2019-03-11T21:40:15.122Z,9.20
2019-03-11T21:42:43.618Z,5.10
2019-03-11T21:45:13.875Z,3.73
2019-03-11T21:47:42.651Z,5.03
2019-03-11T21:50:22.311Z,3.50
2019-03-11T21:52:52.038Z,12.87
2019-03-11T21:55:21.499Z,6.63
2019-03-11T21:57:50.357Z,2.90
2019-03-11T22:00:34.830Z,4.73
2019-03-11T22:02:55.800Z,3.23
2019-03-11T22:05:24.752Z,9.30
2019-03-11T22:07:53.200Z,7.43
2019-03-11T22:10:22.158Z,5.73
2019-03-11T22:12:50.722Z,3.57
2019-03-11T22:15:22.676Z,9.57
2019-03-11T22:17:51.171Z,11.13
2019-03-11T22:20:19.701Z,3.60
2019-03-11T22:22:48.727Z,8.47
2019-03-11T22:25:19.644Z,4.80
2019-03-11T22:27:48.596Z,4.87
2019-03-11T22:30:19.447Z,7.80
2019-03-11T22:32:47.965Z,4.50
2019-03-11T22:35:17.395Z,9.03
2019-03-11T22:37:46.096Z,2.67
2019-03-11T22:40:16.487Z,3.10
2019-03-11T22:42:45.166Z,5.30
2019-03-11T22:45:17.984Z,4.70
2019-03-11T22:47:46.600Z,7.73
2019-03-11T22:50:17.643Z,5.73
2019-03-11T22:52:45.491Z,3.53
2019-03-11T22:55:14.282Z,3.57
2019-03-11T22:57:42.706Z,3.20
2019-03-11T23:00:24.884Z,5.60
2019-03-11T23:02:53.610Z,3.23
2019-03-11T23:05:22.219Z,6.13
2019-03-11T23:07:50.823Z,5.30
2019-03-11T23:10:19.508Z,5.80
2019-03-11T23:12:48.179Z,4.47
2019-03-11T23:15:16.897Z,4.53
2019-03-11T23:17:45.650Z,2.73
2019-03-11T23:20:14.529Z,11.70
2019-03-11T23:22:43.248Z,5.50
2019-03-11T23:25:11.912Z,8.63
2019-03-11T23:27:40.542Z,4.73
2019-03-11T23:30:14.862Z,3.73
2019-03-11T23:32:43.360Z,2.20
2019-03-11T23:35:12.305Z,4.83
2019-03-11T23:37:40.844Z,3.60
2019-03-11T23:40:09.887Z,6.43
2019-03-11T23:42:38.792Z,6.60
2019-03-11T23:45:11.378Z,10.37
2019-03-11T23:47:39.882Z,9.03
2019-03-11T23:50:11.333Z,5.17
2019-03-11T23:52:40.583Z,11.73
2019-03-11T23:55:17.870Z,3.13
2019-03-11T23:57:46.563Z,5.50
